Time;durP1;ratioP1;P1;durP2;ratioP2;P2;SDS_P1;SDS_P2;PMS_P1;PMS_P2;Temp;Humidity;BMP_temperature;BMP_pressure;BME280_temperature;BME280_humidity;BME280_pressure;Samples;Min_cycle;Max_cycle;Signal;HPM_P1;HPM_P2
2022/08/14 05:31:39;;;;;;;;;;;16.00;52.20;;;;;;6176561;23;20015;-76
2022/08/14 05:34:07;;;;;;;;;;;16.10;51.60;;;;;;6149307;23;19947;-77
2022/08/14 05:36:34;;;;;;;;;;;16.00;52.20;;;;;;6125200;23;19963;-77
2022/08/14 05:39:01;;;;;;;;;;;16.00;52.30;;;;;;6150041;23;19912;-77
2022/08/14 05:41:27;;;;;;;;;;;15.90;52.20;;;;;;6150278;23;19905;-76
2022/08/14 05:43:54;;;;;;;;;;;15.80;52.80;;;;;;6150778;23;19929;-75
2022/08/14 05:46:21;;;;;;;;;;;15.80;52.30;;;;;;6150860;23;20026;-76
2022/08/14 05:48:48;;;;;;;;;;;15.80;52.30;;;;;;6147431;23;19912;-77
2022/08/14 05:51:15;;;;;;;;;;;15.80;51.30;;;;;;6148489;23;19940;-76
2022/08/14 05:53:41;;;;;;;;;;;15.70;51.00;;;;;;6124342;23;19919;-77
2022/08/14 05:56:08;;;;;;;;;;;15.70;51.40;;;;;;6123655;23;19909;-78
2022/08/14 05:58:35;;;;;;;;;;;15.70;51.60;;;;;;6150281;23;19940;-77
2022/08/14 06:01:02;;;;;;;;;;;15.70;51.20;;;;;;6141534;23;19909;-79
2022/08/14 06:03:28;;;;;;;;;;;15.70;51.70;;;;;;6151896;23;19908;-80
2022/08/14 06:05:55;;;;;;;;;;;15.60;52.00;;;;;;6150997;23;20031;-77
2022/08/14 06:08:23;;;;;;;;;;;15.60;52.20;;;;;;6147844;23;20378;-78
2022/08/14 06:10:50;;;;;;;;;;;15.60;52.30;;;;;;6145622;23;20225;-78
2022/08/14 06:13:17;;;;;;;;;;;15.50;51.60;;;;;;6150677;23;19908;-78
2022/08/14 06:15:44;;;;;;;;;;;15.50;52.20;;;;;;6148410;23;19919;-78
2022/08/14 06:18:10;;;;;;;;;;;15.50;52.20;;;;;;6150921;23;19913;-77
2022/08/14 06:20:38;;;;;;;;;;;15.40;52.50;;;;;;6100004;23;19909;-79
2022/08/14 06:23:04;;;;;;;;;;;15.40;52.40;;;;;;6148752;23;19913;-78
2022/08/14 06:25:31;;;;;;;;;;;15.30;52.50;;;;;;6151034;23;20231;-78
2022/08/14 06:27:58;;;;;;;;;;;15.30;52.80;;;;;;6124604;23;19912;-80
2022/08/14 06:30:26;;;;;;;;;;;15.30;53.20;;;;;;6149841;23;20008;-77
2022/08/14 10:56:50;;;;;;;;;;;13.00;62.70;;;;;;6114039;23;19976;-76
2022/08/14 10:59:17;;;;;;;;;;;13.00;63.60;;;;;;6121628;23;19951;-76
2022/08/14 11:01:44;;;;;;;;;;;13.00;63.20;;;;;;6096208;23;19909;-80
2022/08/14 11:04:23;;;;;;;;;;;13.00;63.40;;;;;;6120989;23;20519;-79
2022/08/14 11:06:52;;;;;;;;;;;12.90;63.40;;;;;;6122222;23;20260;-77
2022/08/14 11:09:19;;;;;;;;;;;12.90;63.60;;;;;;6121794;23;20241;-78
2022/08/14 11:11:48;;;;;;;;;;;12.90;63.80;;;;;;6121584;23;19937;-83
2022/08/14 11:14:16;;;;;;;;;;;12.90;64.30;;;;;;6121689;23;19908;-81
2022/08/14 11:16:43;;;;;;;;;;;12.80;64.60;;;;;;6121996;23;19953;-74
2022/08/14 11:19:10;;;;;;;;;;;12.80;64.90;;;;;;6121288;23;20248;-75
2022/08/14 11:21:39;;;;;;;;;;;12.80;64.80;;;;;;6095979;23;20244;-76
2022/08/14 11:24:06;;;;;;;;;;;12.80;65.10;;;;;;6120668;23;19908;-80
2022/08/14 11:26:38;;;;;;;;;;;12.80;65.30;;;;;;6123013;23;20199;-77
2022/08/14 11:29:05;;;;;;;;;;;12.80;65.50;;;;;;6099008;23;19985;-77
2022/08/14 11:31:32;;;;;;;;;;;12.80;65.50;;;;;;6122999;23;19969;-75
2022/08/14 11:33:58;;;;;;;;;;;12.70;65.50;;;;;;6097219;23;19909;-79
2022/08/14 11:36:26;;;;;;;;;;;12.70;65.40;;;;;;6122801;23;20280;-77
2022/08/14 11:38:53;;;;;;;;;;;12.70;65.40;;;;;;6123020;23;19947;-76
2022/08/14 11:41:20;;;;;;;;;;;12.70;65.80;;;;;;6121966;23;19937;-77
2022/08/14 11:43:47;;;;;;;;;;;12.70;66.00;;;;;;6122829;23;20333;-75
2022/08/14 11:46:15;;;;;;;;;;;12.70;66.30;;;;;;6122805;23;19905;-76
2022/08/14 11:48:48;;;;;;;;;;;12.60;66.10;;;;;;6121982;23;19966;-77
2022/08/14 11:51:16;;;;;;;;;;;12.60;66.20;;;;;;6121583;23;19919;-77
2022/08/14 11:53:43;;;;;;;;;;;12.60;65.50;;;;;;6122728;23;19909;-79
2022/08/14 11:56:09;;;;;;;;;;;12.60;65.70;;;;;;6097838;23;19909;-76
2022/08/14 11:58:36;;;;;;;;;;;12.70;66.00;;;;;;6122622;23;19921;-75
2022/08/14 12:01:07;;;;;;;;;;;12.70;65.90;;;;;;6123129;23;19909;-75
2022/08/14 12:03:36;;;;;;;;;;;12.70;65.70;;;;;;6075104;23;19908;-74
2022/08/14 12:06:13;;;;;;;;;;;12.70;65.20;;;;;;6123903;23;19945;-74
2022/08/14 12:08:39;;;;;;;;;;;12.70;65.50;;;;;;6100176;23;20358;-74
2022/08/14 12:11:06;;;;;;;;;;;12.70;65.70;;;;;;6125332;23;19913;-75
2022/08/14 12:13:33;;;;;;;;;;;12.70;65.70;;;;;;6125875;23;19928;-75
2022/08/14 12:16:00;;;;;;;;;;;12.70;65.40;;;;;;6126254;23;19915;-75
2022/08/14 12:18:33;;;;;;;;;;;12.70;65.50;;;;;;6126422;23;19968;-74
2022/08/14 12:21:12;;;;;;;;;;;12.70;65.70;;;;;;6125774;23;20132;-75
2022/08/14 12:23:39;;;;;;;;;;;12.70;65.30;;;;;;6125336;23;19909;-75
2022/08/14 12:26:06;;;;;;;;;;;12.70;65.50;;;;;;6125580;23;19912;-75
2022/08/14 12:28:34;;;;;;;;;;;12.70;65.40;;;;;;6125678;23;20232;-75
2022/08/14 12:31:00;;;;;;;;;;;12.70;65.50;;;;;;6125221;23;19909;-75
2022/08/14 12:33:31;;;;;;;;;;;12.70;65.60;;;;;;6100321;23;19905;-75
2022/08/14 12:35:59;;;;;;;;;;;12.70;65.60;;;;;;6100766;23;20289;-74
2022/08/14 12:38:37;;;;;;;;;;;12.70;65.40;;;;;;6100542;23;19912;-74
2022/08/14 12:41:05;;;;;;;;;;;12.60;65.70;;;;;;6075979;23;19920;-75
2022/08/14 12:43:33;;;;;;;;;;;12.60;65.90;;;;;;6100295;23;19905;-74
2022/08/14 12:46:00;;;;;;;;;;;12.60;65.90;;;;;;6125870;23;19909;-74
2022/08/14 12:48:27;;;;;;;;;;;12.60;66.00;;;;;;6125667;23;19984;-74
2022/08/14 12:50:54;;;;;;;;;;;12.50;66.20;;;;;;6100561;23;19909;-75
2022/08/14 12:53:21;;;;;;;;;;;12.50;66.20;;;;;;6126023;23;19912;-75
2022/08/14 16:46:30;;;;;;;;;;;11.60;69.20;;;;;;6148040;23;20328;-74
2022/08/14 16:48:59;;;;;;;;;;;11.60;69.10;;;;;;6105417;23;20399;-74
2022/08/14 16:51:27;;;;;;;;;;;11.50;69.40;;;;;;6129735;23;20336;-75
2022/08/14 16:53:53;;;;;;;;;;;11.50;68.90;;;;;;6154848;23;19904;-74
2022/08/14 16:56:23;;;;;;;;;;;11.50;69.40;;;;;;6155482;23;19905;-75
2022/08/14 16:58:52;;;;;;;;;;;11.50;69.30;;;;;;6129000;23;20310;-74
2022/08/14 17:01:20;;;;;;;;;;;11.40;69.30;;;;;;6130158;23;19927;-74
2022/08/14 17:03:55;;;;;;;;;;;11.40;69.50;;;;;;6155503;23;20047;-74
2022/08/14 17:06:53;;;;;;;;;;;11.40;69.00;;;;;;6155274;23;19983;-75
2022/08/14 17:09:23;;;;;;;;;;;11.40;68.80;;;;;;6090767;23;19990;-74
2022/08/14 17:11:52;;;;;;;;;;;11.40;69.20;;;;;;6155641;23;19916;-74
2022/08/14 17:14:18;;;;;;;;;;;11.40;69.70;;;;;;6129705;23;19905;-74
2022/08/14 17:16:45;;;;;;;;;;;11.30;69.40;;;;;;6155615;23;19911;-74
2022/08/14 17:19:14;;;;;;;;;;;11.30;69.30;;;;;;6128809;23;20320;-74
2022/08/14 17:21:42;;;;;;;;;;;11.30;69.70;;;;;;6154522;23;19915;-74
2022/08/14 17:24:09;;;;;;;;;;;11.30;69.60;;;;;;6129486;23;20042;-74
2022/08/14 17:26:37;;;;;;;;;;;11.20;70.40;;;;;;6128537;23;20028;-74
2022/08/14 17:29:05;;;;;;;;;;;11.20;70.30;;;;;;6129281;23;19911;-74
2022/08/14 17:31:31;;;;;;;;;;;11.20;70.70;;;;;;6155152;23;19917;-74
2022/08/14 17:34:01;;;;;;;;;;;11.20;70.70;;;;;;6154967;23;20280;-74
2022/08/14 17:36:27;;;;;;;;;;;11.20;70.50;;;;;;6154919;23;19905;-74
2022/08/14 17:38:55;;;;;;;;;;;11.20;70.40;;;;;;6129567;23;20448;-75
2022/08/14 17:41:23;;;;;;;;;;;11.20;70.30;;;;;;6129070;23;20263;-74
2022/08/14 17:43:51;;;;;;;;;;;11.20;69.80;;;;;;6129335;23;19911;-74
2022/08/14 17:46:33;;;;;;;;;;;11.20;70.30;;;;;;6155195;23;19963;-74
2022/08/14 17:49:04;;;;;;;;;;;11.30;69.80;;;;;;6129446;23;19912;-74
2022/08/14 17:51:32;;;;;;;;;;;11.20;69.40;;;;;;6154168;23;19991;-74
2022/08/14 17:53:59;;;;;;;;;;;11.30;69.30;;;;;;6128620;23;19905;-74
2022/08/14 17:56:32;;;;;;;;;;;11.20;69.30;;;;;;6129349;23;20284;-74
2022/08/14 17:59:03;;;;;;;;;;;11.20;69.40;;;;;;6155608;23;19932;-74
2022/08/14 18:01:30;;;;;;;;;;;11.20;70.20;;;;;;6129419;23;19913;-76
2022/08/14 18:03:56;;;;;;;;;;;11.10;70.70;;;;;;6155189;23;19919;-76
2022/08/14 18:06:23;;;;;;;;;;;11.00;71.40;;;;;;6128461;23;19909;-77
2022/08/14 18:08:50;;;;;;;;;;;11.00;71.40;;;;;;6155290;23;20366;-75
2022/08/14 18:11:20;;;;;;;;;;;11.00;71.20;;;;;;6129144;23;19917;-77
2022/08/14 18:13:47;;;;;;;;;;;11.00;70.80;;;;;;6155102;23;19970;-77
